sensor_id;sensor_type;location;lat;lon;timestamp;P1;durP1;ratioP1;P2;durP2;ratioP2
9076;SDS011;4574;51.072;17.174;2022-09-09T00:01:20;8.20;;;5.93;;
9076;SDS011;4574;51.072;17.174;2022-09-09T00:03:58;6.83;;;6.13;;
9076;SDS011;4574;51.072;17.174;2022-09-09T00:06:33;7.00;;;5.67;;
9076;SDS011;4574;51.072;17.174;2022-09-09T00:09:14;6.97;;;6.27;;
9076;SDS011;4574;51.072;17.174;2022-09-09T00:11:47;6.60;;;6.00;;
9076;SDS011;4574;51.072;17.174;2022-09-09T00:14:30;10.37;;;6.00;;
9076;SDS011;4574;51.072;17.174;2022-09-09T00:17:08;10.70;;;5.70;;
9076;SDS011;4574;51.072;17.174;2022-09-09T00:19:41;6.30;;;5.70;;
9076;SDS011;4574;51.072;17.174;2022-09-09T00:22:18;6.97;;;5.70;;
9076;SDS011;4574;51.072;17.174;2022-09-09T00:24:48;6.43;;;5.53;;
9076;SDS011;4574;51.072;17.174;2022-09-09T00:27:23;5.50;;;5.00;;
9076;SDS011;4574;51.072;17.174;2022-09-09T00:29:59;6.57;;;5.70;;
9076;SDS011;4574;51.072;17.174;2022-09-09T00:32:32;6.93;;;4.63;;
9076;SDS011;4574;51.072;17.174;2022-09-09T00:35:03;6.97;;;4.57;;
9076;SDS011;4574;51.072;17.174;2022-09-09T00:37:44;5.83;;;5.00;;
9076;SDS011;4574;51.072;17.174;2022-09-09T00:40:22;6.50;;;4.80;;
9076;SDS011;4574;51.072;17.174;2022-09-09T00:43:00;4.90;;;4.10;;
9076;SDS011;4574;51.072;17.174;2022-09-09T00:48:45;5.20;;;4.63;;
9076;SDS011;4574;51.072;17.174;2022-09-09T00:51:22;5.77;;;5.17;;
9076;SDS011;4574;51.072;17.174;2022-09-09T00:54:04;6.57;;;4.30;;
9076;SDS011;4574;51.072;17.174;2022-09-09T00:56:44;5.03;;;4.20;;
9076;SDS011;4574;51.072;17.174;2022-09-09T00:59:24;4.97;;;4.57;;
9076;SDS011;4574;51.072;17.174;2022-09-09T01:01:57;4.57;;;4.17;;
9076;SDS011;4574;51.072;17.174;2022-09-09T01:04:32;5.03;;;3.73;;
9076;SDS011;4574;51.072;17.174;2022-09-09T01:07:06;4.97;;;4.23;;
9076;SDS011;4574;51.072;17.174;2022-09-09T01:09:47;4.70;;;4.30;;
9076;SDS011;4574;51.072;17.174;2022-09-09T01:12:26;4.17;;;3.77;;
9076;SDS011;4574;51.072;17.174;2022-09-09T01:15:07;4.50;;;4.10;;
9076;SDS011;4574;51.072;17.174;2022-09-09T01:17:44;4.40;;;4.00;;
9076;SDS011;4574;51.072;17.174;2022-09-09T01:20:28;5.17;;;4.47;;
9076;SDS011;4574;51.072;17.174;2022-09-09T01:23:12;5.37;;;4.87;;
9076;SDS011;4574;51.072;17.174;2022-09-09T01:26:13;4.13;;;3.80;;
9076;SDS011;4574;51.072;17.174;2022-09-09T01:28:47;4.63;;;4.30;;
9076;SDS011;4574;51.072;17.174;2022-09-09T01:31:19;4.30;;;3.70;;
9076;SDS011;4574;51.072;17.174;2022-09-09T01:33:50;5.20;;;3.53;;
9076;SDS011;4574;51.072;17.174;2022-09-09T01:36:21;4.70;;;4.23;;
9076;SDS011;4574;51.072;17.174;2022-09-09T01:38:57;3.83;;;3.53;;
9076;SDS011;4574;51.072;17.174;2022-09-09T01:41:27;7.43;;;4.50;;
9076;SDS011;4574;51.072;17.174;2022-09-09T01:43:56;10.13;;;4.30;;
9076;SDS011;4574;51.072;17.174;2022-09-09T01:46:25;5.27;;;4.10;;
9076;SDS011;4574;51.072;17.174;2022-09-09T01:48:56;4.33;;;3.97;;
9076;SDS011;4574;51.072;17.174;2022-09-09T01:51:27;4.10;;;3.70;;
9076;SDS011;4574;51.072;17.174;2022-09-09T01:53:56;7.27;;;4.07;;
9076;SDS011;4574;51.072;17.174;2022-09-09T01:56:29;4.50;;;4.10;;
9076;SDS011;4574;51.072;17.174;2022-09-09T01:59:12;4.17;;;3.87;;
9076;SDS011;4574;51.072;17.174;2022-09-09T02:01:55;3.37;;;3.10;;
9076;SDS011;4574;51.072;17.174;2022-09-09T02:04:36;4.30;;;3.93;;
9076;SDS011;4574;51.072;17.174;2022-09-09T02:07:10;6.07;;;3.93;;
9076;SDS011;4574;51.072;17.174;2022-09-09T02:09:50;3.30;;;3.10;;
9076;SDS011;4574;51.072;17.174;2022-09-09T02:12:31;5.50;;;3.50;;
9076;SDS011;4574;51.072;17.174;2022-09-09T02:15:00;3.37;;;3.07;;
9076;SDS011;4574;51.072;17.174;2022-09-09T02:17:33;4.23;;;3.33;;
9076;SDS011;4574;51.072;17.174;2022-09-09T02:20:06;3.70;;;3.40;;
9076;SDS011;4574;51.072;17.174;2022-09-09T02:22:37;2.97;;;2.77;;
9076;SDS011;4574;51.072;17.174;2022-09-09T02:25:11;4.90;;;2.83;;
9076;SDS011;4574;51.072;17.174;2022-09-09T02:27:45;3.87;;;3.57;;
9076;SDS011;4574;51.072;17.174;2022-09-09T02:30:16;4.37;;;3.93;;
9076;SDS011;4574;51.072;17.174;2022-09-09T02:32:46;3.40;;;3.10;;
9076;SDS011;4574;51.072;17.174;2022-09-09T02:35:19;4.00;;;3.20;;
9076;SDS011;4574;51.072;17.174;2022-09-09T02:37:53;3.57;;;3.27;;
9076;SDS011;4574;51.072;17.174;2022-09-09T02:40:25;5.77;;;3.80;;
9076;SDS011;4574;51.072;17.174;2022-09-09T02:42:56;3.43;;;3.00;;
9076;SDS011;4574;51.072;17.174;2022-09-09T02:45:29;3.30;;;2.90;;
9076;SDS011;4574;51.072;17.174;2022-09-09T02:48:07;6.20;;;2.80;;
9076;SDS011;4574;51.072;17.174;2022-09-09T02:50:43;5.13;;;2.63;;
9076;SDS011;4574;51.072;17.174;2022-09-09T02:53:23;2.87;;;2.60;;
9076;SDS011;4574;51.072;17.174;2022-09-09T02:55:58;2.90;;;2.70;;
9076;SDS011;4574;51.072;17.174;2022-09-09T02:58:33;3.20;;;2.90;;
9076;SDS011;4574;51.072;17.174;2022-09-09T03:01:03;3.40;;;3.13;;
9076;SDS011;4574;51.072;17.174;2022-09-09T03:03:32;3.43;;;3.10;;
9076;SDS011;4574;51.072;17.174;2022-09-09T03:06:01;2.90;;;2.60;;
9076;SDS011;4574;51.072;17.174;2022-09-09T03:08:30;3.17;;;2.77;;
9076;SDS011;4574;51.072;17.174;2022-09-09T03:10:59;3.00;;;2.80;;
9076;SDS011;4574;51.072;17.174;2022-09-09T03:13:29;5.17;;;3.30;;
9076;SDS011;4574;51.072;17.174;2022-09-09T03:15:59;3.23;;;2.90;;
9076;SDS011;4574;51.072;17.174;2022-09-09T03:18:28;3.77;;;3.53;;
9076;SDS011;4574;51.072;17.174;2022-09-09T03:20:57;3.53;;;3.23;;
9076;SDS011;4574;51.072;17.174;2022-09-09T03:23:26;3.77;;;3.47;;
9076;SDS011;4574;51.072;17.174;2022-09-09T03:25:55;4.07;;;3.60;;
9076;SDS011;4574;51.072;17.174;2022-09-09T03:28:25;3.70;;;3.40;;
9076;SDS011;4574;51.072;17.174;2022-09-09T03:31:00;5.13;;;3.30;;
9076;SDS011;4574;51.072;17.174;2022-09-09T03:33:29;4.03;;;3.23;;
9076;SDS011;4574;51.072;17.174;2022-09-09T03:35:58;4.13;;;3.70;;
9076;SDS011;4574;51.072;17.174;2022-09-09T03:38:27;3.60;;;3.30;;
9076;SDS011;4574;51.072;17.174;2022-09-09T03:40:56;4.13;;;3.30;;
9076;SDS011;4574;51.072;17.174;2022-09-09T03:43:26;3.87;;;3.57;;
9076;SDS011;4574;51.072;17.174;2022-09-09T03:45:55;4.77;;;3.60;;
9076;SDS011;4574;51.072;17.174;2022-09-09T03:48:26;5.23;;;3.50;;
9076;SDS011;4574;51.072;17.174;2022-09-09T03:50:55;3.97;;;3.67;;
9076;SDS011;4574;51.072;17.174;2022-09-09T03:53:28;3.40;;;3.20;;
9076;SDS011;4574;51.072;17.174;2022-09-09T03:55:57;4.10;;;3.50;;
9076;SDS011;4574;51.072;17.174;2022-09-09T03:58:28;3.77;;;3.50;;
9076;SDS011;4574;51.072;17.174;2022-09-09T04:00:57;5.17;;;3.93;;
9076;SDS011;4574;51.072;17.174;2022-09-09T04:03:28;6.23;;;3.27;;
9076;SDS011;4574;51.072;17.174;2022-09-09T04:05:59;5.70;;;3.30;;
9076;SDS011;4574;51.072;17.174;2022-09-09T04:08:28;4.17;;;3.20;;
9076;SDS011;4574;51.072;17.174;2022-09-09T04:10:58;4.87;;;3.57;;
9076;SDS011;4574;51.072;17.174;2022-09-09T04:13:28;4.27;;;2.97;;
9076;SDS011;4574;51.072;17.174;2022-09-09T04:15:57;3.53;;;3.23;;
9076;SDS011;4574;51.072;17.174;2022-09-09T04:18:28;3.73;;;3.43;;
9076;SDS011;4574;51.072;17.174;2022-09-09T04:20:58;5.83;;;4.00;;
9076;SDS011;4574;51.072;17.174;2022-09-09T04:23:27;3.73;;;3.50;;
9076;SDS011;4574;51.072;17.174;2022-09-09T04:25:57;4.63;;;3.63;;
9076;SDS011;4574;51.072;17.174;2022-09-09T04:28:28;6.63;;;3.87;;
9076;SDS011;4574;51.072;17.174;2022-09-09T04:31:03;4.10;;;3.80;;
9076;SDS011;4574;51.072;17.174;2022-09-09T04:33:34;6.37;;;3.50;;
9076;SDS011;4574;51.072;17.174;2022-09-09T04:36:06;3.50;;;3.30;;
9076;SDS011;4574;51.072;17.174;2022-09-09T04:38:36;3.33;;;3.03;;
9076;SDS011;4574;51.072;17.174;2022-09-09T04:41:05;4.53;;;3.30;;
9076;SDS011;4574;51.072;17.174;2022-09-09T04:43:37;4.80;;;3.20;;
9076;SDS011;4574;51.072;17.174;2022-09-09T04:46:06;3.60;;;3.30;;
9076;SDS011;4574;51.072;17.174;2022-09-09T04:48:37;5.37;;;3.20;;
9076;SDS011;4574;51.072;17.174;2022-09-09T04:51:06;3.67;;;2.97;;
9076;SDS011;4574;51.072;17.174;2022-09-09T04:53:39;5.53;;;3.40;;
9076;SDS011;4574;51.072;17.174;2022-09-09T04:56:09;3.57;;;3.27;;
9076;SDS011;4574;51.072;17.174;2022-09-09T04:58:38;3.93;;;3.43;;
9076;SDS011;4574;51.072;17.174;2022-09-09T05:01:10;5.83;;;3.90;;
9076;SDS011;4574;51.072;17.174;2022-09-09T05:03:42;7.53;;;4.33;;
9076;SDS011;4574;51.072;17.174;2022-09-09T05:06:12;6.17;;;3.90;;
9076;SDS011;4574;51.072;17.174;2022-09-09T05:08:42;5.57;;;4.17;;
9076;SDS011;4574;51.072;17.174;2022-09-09T05:11:15;8.20;;;4.40;;
9076;SDS011;4574;51.072;17.174;2022-09-09T05:13:45;8.20;;;5.20;;
9076;SDS011;4574;51.072;17.174;2022-09-09T05:16:14;7.47;;;5.37;;
9076;SDS011;4574;51.072;17.174;2022-09-09T05:18:45;7.90;;;5.00;;
9076;SDS011;4574;51.072;17.174;2022-09-09T05:21:14;8.47;;;5.07;;
9076;SDS011;4574;51.072;17.174;2022-09-09T05:23:44;5.67;;;4.93;;
9076;SDS011;4574;51.072;17.174;2022-09-09T05:26:14;7.70;;;4.43;;
9076;SDS011;4574;51.072;17.174;2022-09-09T05:28:44;4.20;;;3.80;;
9076;SDS011;4574;51.072;17.174;2022-09-09T05:31:14;4.83;;;3.73;;
9076;SDS011;4574;51.072;17.174;2022-09-09T05:33:46;3.73;;;3.43;;
9076;SDS011;4574;51.072;17.174;2022-09-09T05:36:16;3.90;;;3.60;;
9076;SDS011;4574;51.072;17.174;2022-09-09T05:38:47;4.13;;;3.83;;
9076;SDS011;4574;51.072;17.174;2022-09-09T05:41:16;4.63;;;3.93;;
9076;SDS011;4574;51.072;17.174;2022-09-09T05:43:46;4.10;;;3.80;;
9076;SDS011;4574;51.072;17.174;2022-09-09T05:46:16;4.50;;;4.10;;
9076;SDS011;4574;51.072;17.174;2022-09-09T05:48:48;6.20;;;4.03;;
9076;SDS011;4574;51.072;17.174;2022-09-09T05:51:18;5.20;;;4.17;;
9076;SDS011;4574;51.072;17.174;2022-09-09T05:53:49;6.57;;;4.40;;
9076;SDS011;4574;51.072;17.174;2022-09-09T05:56:19;5.13;;;4.63;;
9076;SDS011;4574;51.072;17.174;2022-09-09T05:58:50;5.73;;;4.27;;
9076;SDS011;4574;51.072;17.174;2022-09-09T06:01:21;4.73;;;4.33;;
9076;SDS011;4574;51.072;17.174;2022-09-09T06:03:52;8.40;;;4.53;;
9076;SDS011;4574;51.072;17.174;2022-09-09T06:06:22;4.60;;;4.20;;
9076;SDS011;4574;51.072;17.174;2022-09-09T06:08:53;6.57;;;4.43;;
9076;SDS011;4574;51.072;17.174;2022-09-09T06:11:25;5.07;;;4.57;;
9076;SDS011;4574;51.072;17.174;2022-09-09T06:13:58;4.47;;;4.17;;
9076;SDS011;4574;51.072;17.174;2022-09-09T06:16:28;7.60;;;4.70;;
9076;SDS011;4574;51.072;17.174;2022-09-09T06:19:01;8.23;;;4.97;;
9076;SDS011;4574;51.072;17.174;2022-09-09T06:21:31;5.10;;;4.40;;
9076;SDS011;4574;51.072;17.174;2022-09-09T06:24:00;4.63;;;4.30;;
9076;SDS011;4574;51.072;17.174;2022-09-09T06:26:30;4.97;;;4.50;;
9076;SDS011;4574;51.072;17.174;2022-09-09T06:29:01;4.70;;;4.30;;
9076;SDS011;4574;51.072;17.174;2022-09-09T06:31:32;7.03;;;4.30;;
9076;SDS011;4574;51.072;17.174;2022-09-09T06:34:06;8.07;;;3.97;;
9076;SDS011;4574;51.072;17.174;2022-09-09T06:36:36;4.60;;;3.97;;
9076;SDS011;4574;51.072;17.174;2022-09-09T06:39:06;4.13;;;3.83;;
9076;SDS011;4574;51.072;17.174;2022-09-09T06:41:40;6.43;;;3.73;;
9076;SDS011;4574;51.072;17.174;2022-09-09T06:44:10;4.83;;;4.30;;
9076;SDS011;4574;51.072;17.174;2022-09-09T06:46:39;4.83;;;4.20;;
9076;SDS011;4574;51.072;17.174;2022-09-09T06:49:10;5.67;;;4.23;;
9076;SDS011;4574;51.072;17.174;2022-09-09T06:51:38;17.30;;;9.77;;
9076;SDS011;4574;51.072;17.174;2022-09-09T06:54:09;22.13;;;11.93;;
9076;SDS011;4574;51.072;17.174;2022-09-09T06:56:39;14.47;;;9.30;;
9076;SDS011;4574;51.072;17.174;2022-09-09T06:59:10;62.63;;;28.43;;
9076;SDS011;4574;51.072;17.174;2022-09-09T07:01:39;40.37;;;19.47;;
9076;SDS011;4574;51.072;17.174;2022-09-09T07:04:12;34.63;;;18.07;;
9076;SDS011;4574;51.072;17.174;2022-09-09T07:06:41;25.93;;;12.73;;
9076;SDS011;4574;51.072;17.174;2022-09-09T07:09:11;15.70;;;8.93;;
9076;SDS011;4574;51.072;17.174;2022-09-09T07:11:42;8.43;;;5.03;;
9076;SDS011;4574;51.072;17.174;2022-09-09T07:14:12;8.13;;;5.20;;
9076;SDS011;4574;51.072;17.174;2022-09-09T07:16:42;9.87;;;4.07;;
9076;SDS011;4574;51.072;17.174;2022-09-09T07:19:14;3.47;;;3.17;;
9076;SDS011;4574;51.072;17.174;2022-09-09T07:21:43;4.50;;;3.60;;
9076;SDS011;4574;51.072;17.174;2022-09-09T07:24:12;21.47;;;8.63;;
9076;SDS011;4574;51.072;17.174;2022-09-09T07:26:42;16.27;;;8.50;;
9076;SDS011;4574;51.072;17.174;2022-09-09T07:29:12;4.10;;;3.70;;
9076;SDS011;4574;51.072;17.174;2022-09-09T07:31:46;3.63;;;3.20;;
9076;SDS011;4574;51.072;17.174;2022-09-09T07:34:17;16.60;;;9.50;;
9076;SDS011;4574;51.072;17.174;2022-09-09T07:36:46;11.13;;;7.23;;
9076;SDS011;4574;51.072;17.174;2022-09-09T07:39:15;14.43;;;7.30;;
9076;SDS011;4574;51.072;17.174;2022-09-09T07:41:45;2.90;;;2.70;;
9076;SDS011;4574;51.072;17.174;2022-09-09T07:44:15;4.23;;;2.70;;
9076;SDS011;4574;51.072;17.174;2022-09-09T07:46:48;12.40;;;5.73;;
9076;SDS011;4574;51.072;17.174;2022-09-09T07:49:18;2.90;;;2.70;;
9076;SDS011;4574;51.072;17.174;2022-09-09T07:51:56;12.07;;;5.60;;
9076;SDS011;4574;51.072;17.174;2022-09-09T07:54:25;6.17;;;3.33;;
9076;SDS011;4574;51.072;17.174;2022-09-09T07:56:54;6.97;;;4.60;;
9076;SDS011;4574;51.072;17.174;2022-09-09T07:59:23;5.70;;;3.60;;
9076;SDS011;4574;51.072;17.174;2022-09-09T08:01:52;3.60;;;2.40;;
9076;SDS011;4574;51.072;17.174;2022-09-09T08:04:23;4.67;;;3.87;;
9076;SDS011;4574;51.072;17.174;2022-09-09T08:06:53;3.47;;;2.60;;
9076;SDS011;4574;51.072;17.174;2022-09-09T08:09:24;2.83;;;2.57;;
9076;SDS011;4574;51.072;17.174;2022-09-09T08:11:56;4.77;;;2.43;;
9076;SDS011;4574;51.072;17.174;2022-09-09T08:14:26;2.37;;;2.17;;
9076;SDS011;4574;51.072;17.174;2022-09-09T08:16:56;3.13;;;2.83;;
9076;SDS011;4574;51.072;17.174;2022-09-09T08:19:27;2.40;;;2.20;;
9076;SDS011;4574;51.072;17.174;2022-09-09T08:21:56;2.47;;;1.97;;
9076;SDS011;4574;51.072;17.174;2022-09-09T08:24:25;2.73;;;1.80;;
9076;SDS011;4574;51.072;17.174;2022-09-09T08:26:54;4.57;;;1.97;;
9076;SDS011;4574;51.072;17.174;2022-09-09T08:29:23;1.93;;;1.83;;
9076;SDS011;4574;51.072;17.174;2022-09-09T08:31:52;2.43;;;1.87;;
9076;SDS011;4574;51.072;17.174;2022-09-09T08:34:22;6.37;;;1.80;;
9076;SDS011;4574;51.072;17.174;2022-09-09T08:36:55;3.27;;;1.90;;
9076;SDS011;4574;51.072;17.174;2022-09-09T08:39:24;2.23;;;1.93;;
9076;SDS011;4574;51.072;17.174;2022-09-09T08:44:50;2.00;;;1.80;;
9076;SDS011;4574;51.072;17.174;2022-09-09T08:47:33;3.73;;;1.90;;
9076;SDS011;4574;51.072;17.174;2022-09-09T08:50:13;1.60;;;1.50;;
9076;SDS011;4574;51.072;17.174;2022-09-09T08:52:51;2.63;;;1.57;;
9076;SDS011;4574;51.072;17.174;2022-09-09T08:55:25;1.70;;;1.60;;
9076;SDS011;4574;51.072;17.174;2022-09-09T08:58:09;3.43;;;1.90;;
9076;SDS011;4574;51.072;17.174;2022-09-09T09:00:43;2.60;;;1.60;;
9076;SDS011;4574;51.072;17.174;2022-09-09T09:03:33;1.73;;;1.50;;
9076;SDS011;4574;51.072;17.174;2022-09-09T09:06:17;1.57;;;1.47;;
9076;SDS011;4574;51.072;17.174;2022-09-09T09:08:58;3.97;;;2.00;;
9076;SDS011;4574;51.072;17.174;2022-09-09T09:11:34;1.83;;;1.73;;
9076;SDS011;4574;51.072;17.174;2022-09-09T09:14:08;2.07;;;1.57;;
9076;SDS011;4574;51.072;17.174;2022-09-09T09:16:41;4.27;;;1.20;;
9076;SDS011;4574;51.072;17.174;2022-09-09T09:19:17;1.37;;;1.27;;
9076;SDS011;4574;51.072;17.174;2022-09-09T09:21:50;2.67;;;1.37;;
9076;SDS011;4574;51.072;17.174;2022-09-09T09:24:29;2.57;;;1.30;;
9076;SDS011;4574;51.072;17.174;2022-09-09T09:27:11;2.23;;;1.20;;
9076;SDS011;4574;51.072;17.174;2022-09-09T09:29:42;1.53;;;1.13;;
9076;SDS011;4574;51.072;17.174;2022-09-09T09:32:33;2.17;;;1.27;;
9076;SDS011;4574;51.072;17.174;2022-09-09T09:35:06;1.97;;;1.17;;
9076;SDS011;4574;51.072;17.174;2022-09-09T09:37:40;1.50;;;1.10;;
9076;SDS011;4574;51.072;17.174;2022-09-09T09:40:32;1.83;;;1.40;;
9076;SDS011;4574;51.072;17.174;2022-09-09T09:43:01;3.40;;;1.30;;
9076;SDS011;4574;51.072;17.174;2022-09-09T09:45:40;1.97;;;1.00;;
9076;SDS011;4574;51.072;17.174;2022-09-09T09:48:31;2.13;;;1.13;;
9076;SDS011;4574;51.072;17.174;2022-09-09T09:51:02;1.63;;;1.43;;
9076;SDS011;4574;51.072;17.174;2022-09-09T09:53:37;3.17;;;1.60;;
9076;SDS011;4574;51.072;17.174;2022-09-09T09:56:09;1.70;;;1.10;;
9076;SDS011;4574;51.072;17.174;2022-09-09T09:58:47;1.60;;;1.13;;
9076;SDS011;4574;51.072;17.174;2022-09-09T10:01:20;2.20;;;1.00;;
9076;SDS011;4574;51.072;17.174;2022-09-09T10:03:51;2.47;;;1.00;;
9076;SDS011;4574;51.072;17.174;2022-09-09T10:06:29;3.17;;;1.17;;
9076;SDS011;4574;51.072;17.174;2022-09-09T10:09:00;1.00;;;1.00;;
9076;SDS011;4574;51.072;17.174;2022-09-09T10:11:35;1.90;;;1.00;;
9076;SDS011;4574;51.072;17.174;2022-09-09T10:14:17;2.20;;;1.00;;
9076;SDS011;4574;51.072;17.174;2022-09-09T10:16:52;2.40;;;1.13;;
9076;SDS011;4574;51.072;17.174;2022-09-09T10:19:32;1.00;;;1.00;;
9076;SDS011;4574;51.072;17.174;2022-09-09T10:22:04;1.10;;;0.93;;
9076;SDS011;4574;51.072;17.174;2022-09-09T10:24:48;2.80;;;1.20;;
9076;SDS011;4574;51.072;17.174;2022-09-09T10:27:28;0.80;;;0.80;;
9076;SDS011;4574;51.072;17.174;2022-09-09T10:30:10;1.07;;;0.97;;
9076;SDS011;4574;51.072;17.174;2022-09-09T10:32:46;1.33;;;1.10;;
9076;SDS011;4574;51.072;17.174;2022-09-09T10:35:22;1.10;;;1.00;;
9076;SDS011;4574;51.072;17.174;2022-09-09T10:38:14;1.10;;;1.00;;
9076;SDS011;4574;51.072;17.174;2022-09-09T10:40:51;1.83;;;1.00;;
9076;SDS011;4574;51.072;17.174;2022-09-09T10:43:42;1.90;;;1.37;;
9076;SDS011;4574;51.072;17.174;2022-09-09T10:46:27;1.17;;;0.80;;
9076;SDS011;4574;51.072;17.174;2022-09-09T10:49:06;3.13;;;1.20;;
9076;SDS011;4574;51.072;17.174;2022-09-09T10:51:50;0.90;;;0.90;;
9076;SDS011;4574;51.072;17.174;2022-09-09T10:54:32;1.53;;;1.10;;
9076;SDS011;4574;51.072;17.174;2022-09-09T10:57:11;3.17;;;1.00;;
9076;SDS011;4574;51.072;17.174;2022-09-09T10:59:47;1.20;;;1.00;;
9076;SDS011;4574;51.072;17.174;2022-09-09T11:02:20;1.97;;;1.00;;
9076;SDS011;4574;51.072;17.174;2022-09-09T11:04:55;1.07;;;0.97;;
9076;SDS011;4574;51.072;17.174;2022-09-09T11:07:32;3.53;;;1.13;;
9076;SDS011;4574;51.072;17.174;2022-09-09T11:10:11;1.87;;;0.90;;
9076;SDS011;4574;51.072;17.174;2022-09-09T11:12:47;1.50;;;1.03;;
9076;SDS011;4574;51.072;17.174;2022-09-09T11:15:23;0.80;;;0.80;;
9076;SDS011;4574;51.072;17.174;2022-09-09T11:17:59;1.07;;;0.80;;
9076;SDS011;4574;51.072;17.174;2022-09-09T11:20:32;1.43;;;0.93;;
9076;SDS011;4574;51.072;17.174;2022-09-09T11:23:03;0.80;;;0.80;;
9076;SDS011;4574;51.072;17.174;2022-09-09T11:25:38;0.80;;;0.80;;
9076;SDS011;4574;51.072;17.174;2022-09-09T11:31:07;2.10;;;0.97;;
9076;SDS011;4574;51.072;17.174;2022-09-09T11:34:03;2.30;;;1.17;;
9076;SDS011;4574;51.072;17.174;2022-09-09T11:36:49;1.97;;;0.80;;
9076;SDS011;4574;51.072;17.174;2022-09-09T11:39:41;2.57;;;1.07;;
9076;SDS011;4574;51.072;17.174;2022-09-09T11:42:21;1.20;;;0.77;;
9076;SDS011;4574;51.072;17.174;2022-09-09T11:44:52;1.60;;;1.00;;
9076;SDS011;4574;51.072;17.174;2022-09-09T11:47:24;1.93;;;1.10;;
9076;SDS011;4574;51.072;17.174;2022-09-09T11:50:07;2.47;;;1.67;;
9076;SDS011;4574;51.072;17.174;2022-09-09T11:53:03;1.87;;;0.80;;
9076;SDS011;4574;51.072;17.174;2022-09-09T11:55:34;1.50;;;0.90;;
9076;SDS011;4574;51.072;17.174;2022-09-09T11:58:04;2.77;;;0.90;;
9076;SDS011;4574;51.072;17.174;2022-09-09T12:00:43;1.07;;;0.87;;
9076;SDS011;4574;51.072;17.174;2022-09-09T12:06:13;2.30;;;0.77;;
9076;SDS011;4574;51.072;17.174;2022-09-09T12:08:50;1.20;;;0.80;;
9076;SDS011;4574;51.072;17.174;2022-09-09T12:11:25;2.30;;;0.80;;
9076;SDS011;4574;51.072;17.174;2022-09-09T12:13:56;0.77;;;0.77;;
9076;SDS011;4574;51.072;17.174;2022-09-09T12:16:32;1.33;;;0.60;;
9076;SDS011;4574;51.072;17.174;2022-09-09T12:19:04;1.63;;;1.00;;
9076;SDS011;4574;51.072;17.174;2022-09-09T12:21:44;2.57;;;0.80;;
9076;SDS011;4574;51.072;17.174;2022-09-09T12:24:20;2.70;;;0.90;;
9076;SDS011;4574;51.072;17.174;2022-09-09T12:26:56;2.10;;;1.00;;
9076;SDS011;4574;51.072;17.174;2022-09-09T12:29:32;2.10;;;0.80;;
9076;SDS011;4574;51.072;17.174;2022-09-09T12:32:11;0.80;;;0.80;;
9076;SDS011;4574;51.072;17.174;2022-09-09T12:34:46;1.20;;;1.00;;
9076;SDS011;4574;51.072;17.174;2022-09-09T12:37:19;0.93;;;0.80;;
9076;SDS011;4574;51.072;17.174;2022-09-09T12:39:55;2.50;;;0.90;;
9076;SDS011;4574;51.072;17.174;2022-09-09T12:42:26;1.60;;;0.90;;
9076;SDS011;4574;51.072;17.174;2022-09-09T12:44:56;0.70;;;0.70;;
9076;SDS011;4574;51.072;17.174;2022-09-09T12:47:27;1.93;;;1.10;;
9076;SDS011;4574;51.072;17.174;2022-09-09T12:50:10;2.37;;;0.83;;
9076;SDS011;4574;51.072;17.174;2022-09-09T12:52:45;0.83;;;0.83;;
9076;SDS011;4574;51.072;17.174;2022-09-09T12:55:17;1.80;;;1.10;;
9076;SDS011;4574;51.072;17.174;2022-09-09T12:57:48;1.23;;;0.80;;
9076;SDS011;4574;51.072;17.174;2022-09-09T13:00:19;0.80;;;0.80;;
9076;SDS011;4574;51.072;17.174;2022-09-09T13:02:50;1.87;;;0.80;;
9076;SDS011;4574;51.072;17.174;2022-09-09T13:05:22;2.83;;;0.80;;
9076;SDS011;4574;51.072;17.174;2022-09-09T13:08:00;1.00;;;0.90;;
9076;SDS011;4574;51.072;17.174;2022-09-09T13:10:30;0.70;;;0.70;;
9076;SDS011;4574;51.072;17.174;2022-09-09T13:13:19;2.70;;;1.00;;
9076;SDS011;4574;51.072;17.174;2022-09-09T13:15:51;1.73;;;0.87;;
9076;SDS011;4574;51.072;17.174;2022-09-09T13:18:22;2.00;;;0.70;;
9076;SDS011;4574;51.072;17.174;2022-09-09T13:20:54;1.30;;;0.87;;
9076;SDS011;4574;51.072;17.174;2022-09-09T13:23:26;3.40;;;0.80;;
9076;SDS011;4574;51.072;17.174;2022-09-09T13:25:58;2.53;;;0.83;;
9076;SDS011;4574;51.072;17.174;2022-09-09T13:28:29;0.93;;;0.90;;
9076;SDS011;4574;51.072;17.174;2022-09-09T13:31:00;3.80;;;1.23;;
9076;SDS011;4574;51.072;17.174;2022-09-09T13:33:31;1.70;;;0.83;;
9076;SDS011;4574;51.072;17.174;2022-09-09T13:36:03;1.93;;;1.10;;
9076;SDS011;4574;51.072;17.174;2022-09-09T13:38:35;1.10;;;1.00;;
9076;SDS011;4574;51.072;17.174;2022-09-09T13:41:06;1.70;;;0.90;;
9076;SDS011;4574;51.072;17.174;2022-09-09T13:43:37;0.80;;;0.80;;
9076;SDS011;4574;51.072;17.174;2022-09-09T13:46:22;1.83;;;1.10;;
9076;SDS011;4574;51.072;17.174;2022-09-09T13:48:57;1.70;;;1.20;;
9076;SDS011;4574;51.072;17.174;2022-09-09T13:51:32;0.93;;;0.87;;
9076;SDS011;4574;51.072;17.174;2022-09-09T13:54:04;1.20;;;1.03;;
9076;SDS011;4574;51.072;17.174;2022-09-09T13:56:34;1.47;;;1.00;;
9076;SDS011;4574;51.072;17.174;2022-09-09T13:59:05;1.03;;;0.93;;
9076;SDS011;4574;51.072;17.174;2022-09-09T14:01:34;0.80;;;0.80;;
9076;SDS011;4574;51.072;17.174;2022-09-09T14:04:04;1.83;;;1.10;;
9076;SDS011;4574;51.072;17.174;2022-09-09T14:06:35;1.53;;;1.00;;
9076;SDS011;4574;51.072;17.174;2022-09-09T14:09:06;1.57;;;0.87;;
9076;SDS011;4574;51.072;17.174;2022-09-09T14:11:35;1.50;;;0.93;;
9076;SDS011;4574;51.072;17.174;2022-09-09T14:14:04;1.60;;;1.00;;
9076;SDS011;4574;51.072;17.174;2022-09-09T14:16:33;2.10;;;1.17;;
9076;SDS011;4574;51.072;17.174;2022-09-09T14:19:03;1.60;;;1.20;;
9076;SDS011;4574;51.072;17.174;2022-09-09T14:21:32;5.03;;;1.00;;
9076;SDS011;4574;51.072;17.174;2022-09-09T14:24:02;1.57;;;1.10;;
9076;SDS011;4574;51.072;17.174;2022-09-09T14:26:31;1.30;;;0.80;;
9076;SDS011;4574;51.072;17.174;2022-09-09T14:29:01;3.93;;;1.10;;
9076;SDS011;4574;51.072;17.174;2022-09-09T14:31:29;1.40;;;0.93;;
9076;SDS011;4574;51.072;17.174;2022-09-09T14:33:58;1.63;;;0.90;;
9076;SDS011;4574;51.072;17.174;2022-09-09T14:36:27;0.83;;;0.83;;
9076;SDS011;4574;51.072;17.174;2022-09-09T14:38:55;1.30;;;1.10;;
9076;SDS011;4574;51.072;17.174;2022-09-09T14:41:26;2.10;;;1.17;;
9076;SDS011;4574;51.072;17.174;2022-09-09T14:43:56;0.90;;;0.90;;
9076;SDS011;4574;51.072;17.174;2022-09-09T14:46:25;1.20;;;0.80;;
9076;SDS011;4574;51.072;17.174;2022-09-09T14:48:54;3.77;;;1.40;;
9076;SDS011;4574;51.072;17.174;2022-09-09T14:51:23;1.90;;;1.30;;
9076;SDS011;4574;51.072;17.174;2022-09-09T14:53:54;1.30;;;1.20;;
9076;SDS011;4574;51.072;17.174;2022-09-09T14:56:30;2.60;;;1.40;;
9076;SDS011;4574;51.072;17.174;2022-09-09T14:59:04;1.10;;;1.00;;
9076;SDS011;4574;51.072;17.174;2022-09-09T15:01:33;1.33;;;1.10;;
9076;SDS011;4574;51.072;17.174;2022-09-09T15:04:03;1.83;;;0.90;;
9076;SDS011;4574;51.072;17.174;2022-09-09T15:06:34;1.07;;;0.97;;
9076;SDS011;4574;51.072;17.174;2022-09-09T15:09:05;2.73;;;1.07;;
9076;SDS011;4574;51.072;17.174;2022-09-09T15:11:36;2.33;;;1.10;;
9076;SDS011;4574;51.072;17.174;2022-09-09T15:14:06;2.40;;;1.50;;
9076;SDS011;4574;51.072;17.174;2022-09-09T15:16:36;3.83;;;1.33;;
9076;SDS011;4574;51.072;17.174;2022-09-09T15:19:06;1.73;;;1.30;;
9076;SDS011;4574;51.072;17.174;2022-09-09T15:21:36;1.30;;;1.10;;
9076;SDS011;4574;51.072;17.174;2022-09-09T15:24:06;3.83;;;0.93;;
9076;SDS011;4574;51.072;17.174;2022-09-09T15:26:36;1.80;;;1.37;;
9076;SDS011;4574;51.072;17.174;2022-09-09T15:29:06;3.47;;;1.30;;
9076;SDS011;4574;51.072;17.174;2022-09-09T15:31:35;2.07;;;1.20;;
9076;SDS011;4574;51.072;17.174;2022-09-09T15:34:05;1.90;;;1.20;;
9076;SDS011;4574;51.072;17.174;2022-09-09T15:36:35;2.50;;;1.27;;
9076;SDS011;4574;51.072;17.174;2022-09-09T15:39:06;3.63;;;1.10;;
9076;SDS011;4574;51.072;17.174;2022-09-09T15:41:37;1.10;;;1.00;;
9076;SDS011;4574;51.072;17.174;2022-09-09T15:44:07;2.43;;;1.20;;
9076;SDS011;4574;51.072;17.174;2022-09-09T15:46:37;1.20;;;1.10;;
9076;SDS011;4574;51.072;17.174;2022-09-09T15:49:09;1.10;;;1.00;;